< Typhoon 201626 2017 Season Typhoon 201702 >
Typhoon 201701 (MUIFA)
General InformationDetailed Track InformationTrack Information on Google MapsForecast History on Google MapsAccess Analytics MapList of All Images || NewsDisaster Info.WeblogTrackbackTyphoon FrontTwiphoonTyphoon Now!Typhoon ImaginationDisaster Info. XMLResourceGoogle EarthGE AnimationAtom FeedGeoJSON
Detalied Best Track Wind (Time Zone = UTC)
Year Month Day Hour Lat. Long. Wind (kt) Gust (kt) Direc. of Major Storm Axis Radius of Major Storm Axis (nm) Radius of Minor Storm Axis (nm) Direc. of Major Gale Axis Radius of Major Gale Axis (nm) Radius of Minor Gale Axis (nm) Image
2017 4 22 18 8.6 143.9 0 0 - - - - - - Image
2017 4 23 00 9.2 143.2 0 0 - - - - - - Image
2017 4 23 06 9.9 142.4 0 0 - - - - - - Image
2017 4 23 12 10.6 141.7 0 0 - - - - - - Image
2017 4 23 18 11.2 140.8 0 0 - - - - - - Image
2017 4 24 00 11.8 139.7 0 0 - - - - - - Image
2017 4 24 06 12.1 138.8 0 0 - - - - - - Image
2017 4 24 12 12.4 138.2 0 0 - - - - - - Image
2017 4 24 18 12.5 137.5 0 0 - - - - - - Image
2017 4 25 00 12.7 137.0 0 0 - - - - - - Image
2017 4 25 06 12.8 136.6 0 0 - - - - - - Image
2017 4 25 12 12.9 136.4 0 0 - - - - - - Image
2017 4 25 18 13.1 136.0 35 0 - - - E 120 90 Image
2017 4 26 00 13.2 135.7 35 0 - - - E 120 90 Image
2017 4 26 06 13.6 134.8 35 0 - - - E 120 90 Image
2017 4 26 12 14.0 134.4 35 0 - - - E 120 90 Image
2017 4 26 18 14.4 134.4 35 0 - - - E 120 90 Image
2017 4 27 00 14.8 134.4 35 0 - - - E 120 90 Image
2017 4 27 06 15.9 134.7 0 0 - - - - - - Image
2017 4 27 12 17.0 134.7 0 0 - - - - - - Image
2017 4 27 18 17.8 134.8 0 0 - - - - - - Image
2017 4 28 00 18.4 135.5 0 0 - - - - - - Image
2017 4 28 06 19.0 136.3 0 0 - - - - - - Image
2017 4 28 12 19.9 137.7 0 0 - - - - - - Image
2017 4 28 18 20.8 139.0 0 0 - - - - - - Image
2017 4 29 00 21.5 140.2 0 0 - - - - - - Image
2017 4 29 06 22.7 141.8 0 0 - - - - - - Image
Japan Meteorological Agency Best Track Data | Correction Date : 2017-06-09
< Typhoon 201626 2017 Season Typhoon 201702 >

Help